Rushville, Pennsylvania
Current Conditions -  °F | °C
As of 7:53 PM on Sunday 23 Nov 2014 (Local Time) from KBGM Reporting Station
Clear Clear  
Wind Chill:   Ceiling: Unl
Heat Index:   Visibility: 10mi
Dew Point: -2°   Wind: 13mph
Humidity: 50%   Direction: 160°SSE
Pressure: 29.96"   Gusts: NA
Location:  41.78°N, 76.12°W
Report Text: KBGM 240053Z 16011KT 10SM CLR 08/M02 A2996 RMK AO2 SLP151 T00831017
Loading
Personal Weather Stations






























Interactive Weather Map New forecast layout! Learn more

10-Day Weather Forecast

Advertisements
Track Severe Weather on mobile